sensor_id;sensor_type;location;lat;lon;timestamp;P1;durP1;ratioP1;P2;durP2;ratioP2
73321;SDS011;61549;37.044;22.128;2022-12-10T00:01:05;20.73;;;6.18;;
73321;SDS011;61549;37.044;22.128;2022-12-10T00:03:33;21.05;;;6.03;;
73321;SDS011;61549;37.044;22.128;2022-12-10T00:05:59;25.30;;;7.07;;
73321;SDS011;61549;37.044;22.128;2022-12-10T00:08:29;43.00;;;24.42;;
73321;SDS011;61549;37.044;22.128;2022-12-10T00:10:55;46.15;;;22.00;;
73321;SDS011;61549;37.044;22.128;2022-12-10T00:13:21;37.60;;;20.42;;
73321;SDS011;61549;37.044;22.128;2022-12-10T00:15:48;28.63;;;9.80;;
73321;SDS011;61549;37.044;22.128;2022-12-10T00:18:14;19.10;;;5.93;;
73321;SDS011;61549;37.044;22.128;2022-12-10T00:20:39;22.25;;;5.97;;
73321;SDS011;61549;37.044;22.128;2022-12-10T00:23:05;24.65;;;8.68;;
73321;SDS011;61549;37.044;22.128;2022-12-10T00:25:31;22.27;;;5.93;;
73321;SDS011;61549;37.044;22.128;2022-12-10T00:27:57;22.45;;;6.10;;
73321;SDS011;61549;37.044;22.128;2022-12-10T00:30:33;26.13;;;6.03;;
73321;SDS011;61549;37.044;22.128;2022-12-10T00:32:59;18.25;;;5.18;;
73321;SDS011;61549;37.044;22.128;2022-12-10T00:35:25;18.92;;;4.88;;
73321;SDS011;61549;37.044;22.128;2022-12-10T00:40:35;17.73;;;4.40;;
73321;SDS011;61549;37.044;22.128;2022-12-10T00:43:01;20.88;;;5.10;;
73321;SDS011;61549;37.044;22.128;2022-12-10T00:45:26;16.83;;;4.25;;
73321;SDS011;61549;37.044;22.128;2022-12-10T00:47:52;19.45;;;4.68;;
73321;SDS011;61549;37.044;22.128;2022-12-10T00:50:18;19.38;;;4.30;;
73321;SDS011;61549;37.044;22.128;2022-12-10T00:52:44;16.48;;;4.95;;
73321;SDS011;61549;37.044;22.128;2022-12-10T00:55:10;20.02;;;4.53;;
73321;SDS011;61549;37.044;22.128;2022-12-10T00:57:35;19.90;;;4.75;;
73321;SDS011;61549;37.044;22.128;2022-12-10T01:00:02;23.90;;;4.82;;
73321;SDS011;61549;37.044;22.128;2022-12-10T01:02:29;19.38;;;4.22;;
73321;SDS011;61549;37.044;22.128;2022-12-10T01:04:55;21.30;;;5.00;;
73321;SDS011;61549;37.044;22.128;2022-12-10T01:07:20;19.80;;;4.55;;
73321;SDS011;61549;37.044;22.128;2022-12-10T01:09:46;16.77;;;4.70;;
73321;SDS011;61549;37.044;22.128;2022-12-10T01:12:12;18.42;;;4.40;;
73321;SDS011;61549;37.044;22.128;2022-12-10T01:14:38;19.20;;;4.30;;
73321;SDS011;61549;37.044;22.128;2022-12-10T01:17:04;17.60;;;4.82;;
73321;SDS011;61549;37.044;22.128;2022-12-10T01:19:31;23.30;;;5.32;;
73321;SDS011;61549;37.044;22.128;2022-12-10T01:22:00;22.33;;;5.82;;
73321;SDS011;61549;37.044;22.128;2022-12-10T01:24:27;17.88;;;4.82;;
73321;SDS011;61549;37.044;22.128;2022-12-10T01:26:54;17.88;;;5.15;;
73321;SDS011;61549;37.044;22.128;2022-12-10T01:29:20;19.42;;;4.95;;
73321;SDS011;61549;37.044;22.128;2022-12-10T01:31:49;14.57;;;4.57;;
73321;SDS011;61549;37.044;22.128;2022-12-10T01:34:17;21.10;;;4.70;;
73321;SDS011;61549;37.044;22.128;2022-12-10T01:36:43;19.60;;;4.68;;
73321;SDS011;61549;37.044;22.128;2022-12-10T01:39:11;23.75;;;5.30;;
73321;SDS011;61549;37.044;22.128;2022-12-10T01:41:41;20.48;;;5.25;;
73321;SDS011;61549;37.044;22.128;2022-12-10T01:46:41;22.08;;;5.05;;
73321;SDS011;61549;37.044;22.128;2022-12-10T01:49:21;18.17;;;4.97;;
73321;SDS011;61549;37.044;22.128;2022-12-10T01:51:51;18.60;;;5.10;;
73321;SDS011;61549;37.044;22.128;2022-12-10T01:54:23;19.75;;;4.72;;
73321;SDS011;61549;37.044;22.128;2022-12-10T01:59:46;19.08;;;4.43;;
73321;SDS011;61549;37.044;22.128;2022-12-10T02:02:24;18.65;;;4.25;;
73321;SDS011;61549;37.044;22.128;2022-12-10T02:13:27;14.02;;;3.83;;
73321;SDS011;61549;37.044;22.128;2022-12-10T02:16:08;20.60;;;4.30;;
73321;SDS011;61549;37.044;22.128;2022-12-10T02:18:43;23.52;;;4.75;;
73321;SDS011;61549;37.044;22.128;2022-12-10T02:21:25;16.95;;;4.75;;
73321;SDS011;61549;37.044;22.128;2022-12-10T02:24:21;17.55;;;4.93;;
73321;SDS011;61549;37.044;22.128;2022-12-10T02:29:30;19.70;;;4.75;;
73321;SDS011;61549;37.044;22.128;2022-12-10T02:34:31;20.52;;;5.28;;
73321;SDS011;61549;37.044;22.128;2022-12-10T02:37:04;15.45;;;4.72;;
73321;SDS011;61549;37.044;22.128;2022-12-10T02:39:38;14.70;;;4.70;;
73321;SDS011;61549;37.044;22.128;2022-12-10T02:42:06;16.20;;;4.55;;
73321;SDS011;61549;37.044;22.128;2022-12-10T02:44:33;14.95;;;4.07;;
73321;SDS011;61549;37.044;22.128;2022-12-10T02:47:03;17.48;;;4.30;;
73321;SDS011;61549;37.044;22.128;2022-12-10T02:49:30;15.82;;;3.90;;
73321;SDS011;61549;37.044;22.128;2022-12-10T02:51:56;18.90;;;3.88;;
73321;SDS011;61549;37.044;22.128;2022-12-10T02:57:33;18.05;;;4.60;;
73321;SDS011;61549;37.044;22.128;2022-12-10T03:00:19;16.10;;;4.00;;
73321;SDS011;61549;37.044;22.128;2022-12-10T03:10:36;23.45;;;4.07;;
73321;SDS011;61549;37.044;22.128;2022-12-10T03:13:12;14.50;;;4.55;;
73321;SDS011;61549;37.044;22.128;2022-12-10T03:15:41;13.05;;;3.90;;
73321;SDS011;61549;37.044;22.128;2022-12-10T03:18:08;11.82;;;4.00;;
73321;SDS011;61549;37.044;22.128;2022-12-10T03:20:38;19.67;;;4.70;;
73321;SDS011;61549;37.044;22.128;2022-12-10T03:23:13;14.20;;;4.00;;
73321;SDS011;61549;37.044;22.128;2022-12-10T03:25:42;11.35;;;3.78;;
73321;SDS011;61549;37.044;22.128;2022-12-10T03:28:09;19.92;;;4.70;;
73321;SDS011;61549;37.044;22.128;2022-12-10T03:30:36;20.20;;;4.53;;
73321;SDS011;61549;37.044;22.128;2022-12-10T03:33:04;20.65;;;4.55;;
73321;SDS011;61549;37.044;22.128;2022-12-10T03:35:30;23.40;;;4.47;;
73321;SDS011;61549;37.044;22.128;2022-12-10T03:37:57;17.27;;;4.40;;
73321;SDS011;61549;37.044;22.128;2022-12-10T03:40:23;18.92;;;5.18;;
73321;SDS011;61549;37.044;22.128;2022-12-10T03:42:50;15.40;;;4.50;;
73321;SDS011;61549;37.044;22.128;2022-12-10T03:45:16;13.25;;;4.30;;
73321;SDS011;61549;37.044;22.128;2022-12-10T03:47:42;17.48;;;4.38;;
73321;SDS011;61549;37.044;22.128;2022-12-10T03:50:09;13.38;;;4.38;;
73321;SDS011;61549;37.044;22.128;2022-12-10T03:52:35;13.02;;;4.00;;
73321;SDS011;61549;37.044;22.128;2022-12-10T03:55:01;15.20;;;4.15;;
73321;SDS011;61549;37.044;22.128;2022-12-10T03:57:28;21.55;;;4.63;;
73321;SDS011;61549;37.044;22.128;2022-12-10T03:59:54;15.27;;;4.60;;
73321;SDS011;61549;37.044;22.128;2022-12-10T04:02:20;18.38;;;4.25;;
73321;SDS011;61549;37.044;22.128;2022-12-10T04:04:46;14.52;;;3.83;;
73321;SDS011;61549;37.044;22.128;2022-12-10T04:07:11;16.70;;;4.18;;
73321;SDS011;61549;37.044;22.128;2022-12-10T04:09:38;20.05;;;4.45;;
73321;SDS011;61549;37.044;22.128;2022-12-10T04:12:04;16.10;;;4.53;;
73321;SDS011;61549;37.044;22.128;2022-12-10T04:14:30;17.80;;;4.72;;
73321;SDS011;61549;37.044;22.128;2022-12-10T04:17:14;16.75;;;4.70;;
73321;SDS011;61549;37.044;22.128;2022-12-10T04:19:40;18.65;;;4.25;;
73321;SDS011;61549;37.044;22.128;2022-12-10T04:22:08;20.85;;;4.47;;
73321;SDS011;61549;37.044;22.128;2022-12-10T04:24:53;17.17;;;4.55;;
73321;SDS011;61549;37.044;22.128;2022-12-10T04:27:37;15.00;;;4.30;;
73321;SDS011;61549;37.044;22.128;2022-12-10T04:30:05;15.90;;;4.35;;
73321;SDS011;61549;37.044;22.128;2022-12-10T04:32:34;15.07;;;3.92;;
73321;SDS011;61549;37.044;22.128;2022-12-10T04:34:59;13.75;;;4.00;;
73321;SDS011;61549;37.044;22.128;2022-12-10T04:37:26;14.07;;;4.03;;
73321;SDS011;61549;37.044;22.128;2022-12-10T04:39:52;9.32;;;3.75;;
73321;SDS011;61549;37.044;22.128;2022-12-10T04:42:19;15.63;;;4.13;;
73321;SDS011;61549;37.044;22.128;2022-12-10T04:44:46;14.95;;;4.20;;
73321;SDS011;61549;37.044;22.128;2022-12-10T04:47:12;17.20;;;3.90;;
73321;SDS011;61549;37.044;22.128;2022-12-10T04:49:38;18.25;;;4.50;;
73321;SDS011;61549;37.044;22.128;2022-12-10T04:52:05;13.52;;;3.83;;
73321;SDS011;61549;37.044;22.128;2022-12-10T04:54:31;20.25;;;4.50;;
73321;SDS011;61549;37.044;22.128;2022-12-10T04:56:58;17.58;;;4.47;;
73321;SDS011;61549;37.044;22.128;2022-12-10T04:59:23;16.98;;;3.83;;
73321;SDS011;61549;37.044;22.128;2022-12-10T05:01:49;16.85;;;4.35;;
73321;SDS011;61549;37.044;22.128;2022-12-10T05:04:16;13.50;;;3.95;;
73321;SDS011;61549;37.044;22.128;2022-12-10T05:06:43;15.68;;;4.22;;
73321;SDS011;61549;37.044;22.128;2022-12-10T05:09:10;12.63;;;3.90;;
73321;SDS011;61549;37.044;22.128;2022-12-10T05:11:37;11.68;;;3.50;;
73321;SDS011;61549;37.044;22.128;2022-12-10T05:14:03;13.35;;;3.47;;
73321;SDS011;61549;37.044;22.128;2022-12-10T05:16:30;11.73;;;3.45;;
73321;SDS011;61549;37.044;22.128;2022-12-10T05:18:57;12.65;;;3.10;;
73321;SDS011;61549;37.044;22.128;2022-12-10T05:21:25;10.32;;;3.25;;
73321;SDS011;61549;37.044;22.128;2022-12-10T05:24:11;17.65;;;3.83;;
73321;SDS011;61549;37.044;22.128;2022-12-10T05:26:37;17.58;;;3.78;;
73321;SDS011;61549;37.044;22.128;2022-12-10T05:29:03;10.95;;;3.40;;
73321;SDS011;61549;37.044;22.128;2022-12-10T05:31:29;12.45;;;3.38;;
73321;SDS011;61549;37.044;22.128;2022-12-10T05:33:55;13.63;;;3.47;;
73321;SDS011;61549;37.044;22.128;2022-12-10T05:36:27;13.35;;;3.35;;
73321;SDS011;61549;37.044;22.128;2022-12-10T05:38:55;12.68;;;2.85;;
73321;SDS011;61549;37.044;22.128;2022-12-10T05:41:23;10.40;;;2.60;;
73321;SDS011;61549;37.044;22.128;2022-12-10T05:43:53;13.18;;;2.92;;
73321;SDS011;61549;37.044;22.128;2022-12-10T05:46:21;12.65;;;3.00;;
73321;SDS011;61549;37.044;22.128;2022-12-10T05:48:49;10.32;;;3.42;;
73321;SDS011;61549;37.044;22.128;2022-12-10T05:51:17;7.43;;;3.17;;
73321;SDS011;61549;37.044;22.128;2022-12-10T05:53:45;10.10;;;3.17;;
73321;SDS011;61549;37.044;22.128;2022-12-10T05:56:12;12.82;;;3.70;;
73321;SDS011;61549;37.044;22.128;2022-12-10T05:58:41;14.85;;;3.47;;
73321;SDS011;61549;37.044;22.128;2022-12-10T06:01:08;14.00;;;4.07;;
73321;SDS011;61549;37.044;22.128;2022-12-10T06:03:36;12.00;;;3.90;;
73321;SDS011;61549;37.044;22.128;2022-12-10T06:06:03;16.02;;;6.18;;
73321;SDS011;61549;37.044;22.128;2022-12-10T06:08:30;11.50;;;4.35;;
73321;SDS011;61549;37.044;22.128;2022-12-10T06:11:00;11.70;;;3.40;;
73321;SDS011;61549;37.044;22.128;2022-12-10T06:13:26;11.05;;;3.30;;
73321;SDS011;61549;37.044;22.128;2022-12-10T06:15:52;13.27;;;3.35;;
73321;SDS011;61549;37.044;22.128;2022-12-10T06:18:18;12.93;;;4.05;;
73321;SDS011;61549;37.044;22.128;2022-12-10T06:20:44;14.27;;;3.63;;
73321;SDS011;61549;37.044;22.128;2022-12-10T06:23:10;10.55;;;3.63;;
73321;SDS011;61549;37.044;22.128;2022-12-10T06:25:37;10.68;;;3.33;;
73321;SDS011;61549;37.044;22.128;2022-12-10T06:28:04;12.52;;;3.13;;
73321;SDS011;61549;37.044;22.128;2022-12-10T06:30:31;13.07;;;3.10;;
73321;SDS011;61549;37.044;22.128;2022-12-10T06:32:58;9.40;;;3.22;;
73321;SDS011;61549;37.044;22.128;2022-12-10T06:35:23;11.23;;;3.10;;
73321;SDS011;61549;37.044;22.128;2022-12-10T06:37:49;9.98;;;2.83;;
73321;SDS011;61549;37.044;22.128;2022-12-10T06:40:15;11.85;;;2.90;;
73321;SDS011;61549;37.044;22.128;2022-12-10T06:42:42;12.38;;;3.85;;
73321;SDS011;61549;37.044;22.128;2022-12-10T06:45:08;13.30;;;4.05;;
73321;SDS011;61549;37.044;22.128;2022-12-10T06:47:34;12.90;;;3.58;;
73321;SDS011;61549;37.044;22.128;2022-12-10T06:50:00;11.68;;;3.13;;
73321;SDS011;61549;37.044;22.128;2022-12-10T06:52:26;6.85;;;2.83;;
73321;SDS011;61549;37.044;22.128;2022-12-10T06:54:52;13.70;;;2.80;;
73321;SDS011;61549;37.044;22.128;2022-12-10T06:57:20;13.05;;;3.53;;
73321;SDS011;61549;37.044;22.128;2022-12-10T06:59:47;15.60;;;3.75;;
73321;SDS011;61549;37.044;22.128;2022-12-10T07:02:13;10.70;;;2.70;;
73321;SDS011;61549;37.044;22.128;2022-12-10T07:04:38;9.27;;;2.72;;
73321;SDS011;61549;37.044;22.128;2022-12-10T07:07:05;10.52;;;3.70;;
73321;SDS011;61549;37.044;22.128;2022-12-10T07:09:31;12.80;;;3.72;;
73321;SDS011;61549;37.044;22.128;2022-12-10T07:11:58;10.02;;;3.72;;
73321;SDS011;61549;37.044;22.128;2022-12-10T07:14:24;10.57;;;4.13;;
73321;SDS011;61549;37.044;22.128;2022-12-10T07:16:50;13.32;;;3.40;;
73321;SDS011;61549;37.044;22.128;2022-12-10T07:19:16;11.50;;;3.55;;
73321;SDS011;61549;37.044;22.128;2022-12-10T07:21:42;12.45;;;3.53;;
73321;SDS011;61549;37.044;22.128;2022-12-10T07:24:13;14.90;;;4.97;;
73321;SDS011;61549;37.044;22.128;2022-12-10T07:26:44;13.50;;;4.77;;
73321;SDS011;61549;37.044;22.128;2022-12-10T07:29:18;16.58;;;4.10;;
73321;SDS011;61549;37.044;22.128;2022-12-10T07:31:46;8.75;;;3.20;;
73321;SDS011;61549;37.044;22.128;2022-12-10T07:34:13;15.23;;;3.10;;
73321;SDS011;61549;37.044;22.128;2022-12-10T07:36:39;9.02;;;2.97;;
73321;SDS011;61549;37.044;22.128;2022-12-10T07:39:06;12.25;;;2.90;;
73321;SDS011;61549;37.044;22.128;2022-12-10T07:41:34;13.77;;;2.80;;
73321;SDS011;61549;37.044;22.128;2022-12-10T07:44:01;12.48;;;3.22;;
73321;SDS011;61549;37.044;22.128;2022-12-10T07:46:31;15.40;;;4.22;;
73321;SDS011;61549;37.044;22.128;2022-12-10T07:49:00;10.32;;;3.28;;
73321;SDS011;61549;37.044;22.128;2022-12-10T07:51:27;11.32;;;3.22;;
73321;SDS011;61549;37.044;22.128;2022-12-10T07:53:54;12.48;;;3.47;;
73321;SDS011;61549;37.044;22.128;2022-12-10T07:56:21;14.57;;;6.00;;
73321;SDS011;61549;37.044;22.128;2022-12-10T07:58:48;12.65;;;4.35;;
73321;SDS011;61549;37.044;22.128;2022-12-10T08:01:15;10.88;;;3.35;;
73321;SDS011;61549;37.044;22.128;2022-12-10T08:03:44;10.88;;;2.95;;
73321;SDS011;61549;37.044;22.128;2022-12-10T08:06:13;14.40;;;3.60;;
73321;SDS011;61549;37.044;22.128;2022-12-10T08:08:42;10.55;;;3.30;;
73321;SDS011;61549;37.044;22.128;2022-12-10T08:11:09;12.18;;;2.72;;
73321;SDS011;61549;37.044;22.128;2022-12-10T08:13:36;10.43;;;3.30;;
73321;SDS011;61549;37.044;22.128;2022-12-10T08:16:07;14.55;;;3.80;;
73321;SDS011;61549;37.044;22.128;2022-12-10T08:23:30;11.38;;;2.80;;
73321;SDS011;61549;37.044;22.128;2022-12-10T08:25:56;11.25;;;2.78;;
73321;SDS011;61549;37.044;22.128;2022-12-10T08:28:22;15.45;;;7.72;;
73321;SDS011;61549;37.044;22.128;2022-12-10T08:30:48;14.98;;;7.22;;
73321;SDS011;61549;37.044;22.128;2022-12-10T08:33:14;11.95;;;4.28;;
73321;SDS011;61549;37.044;22.128;2022-12-10T08:35:41;11.98;;;3.95;;
73321;SDS011;61549;37.044;22.128;2022-12-10T08:38:07;13.35;;;3.75;;
73321;SDS011;61549;37.044;22.128;2022-12-10T08:40:33;10.35;;;2.83;;
73321;SDS011;61549;37.044;22.128;2022-12-10T08:42:59;11.88;;;2.90;;
73321;SDS011;61549;37.044;22.128;2022-12-10T08:45:24;10.25;;;3.25;;
73321;SDS011;61549;37.044;22.128;2022-12-10T08:47:51;12.40;;;2.47;;
73321;SDS011;61549;37.044;22.128;2022-12-10T08:50:17;14.20;;;2.65;;
73321;SDS011;61549;37.044;22.128;2022-12-10T08:52:43;11.98;;;2.78;;
73321;SDS011;61549;37.044;22.128;2022-12-10T08:55:09;10.48;;;2.53;;
73321;SDS011;61549;37.044;22.128;2022-12-10T08:57:35;9.65;;;3.10;;
73321;SDS011;61549;37.044;22.128;2022-12-10T09:00:01;11.45;;;2.80;;
73321;SDS011;61549;37.044;22.128;2022-12-10T09:02:29;13.98;;;3.08;;
73321;SDS011;61549;37.044;22.128;2022-12-10T09:04:55;6.05;;;2.22;;
73321;SDS011;61549;37.044;22.128;2022-12-10T09:07:21;10.57;;;2.90;;
73321;SDS011;61549;37.044;22.128;2022-12-10T09:09:47;10.80;;;3.60;;
73321;SDS011;61549;37.044;22.128;2022-12-10T09:12:12;11.70;;;3.83;;
73321;SDS011;61549;37.044;22.128;2022-12-10T09:14:39;14.05;;;4.97;;
73321;SDS011;61549;37.044;22.128;2022-12-10T09:17:06;14.60;;;3.72;;
73321;SDS011;61549;37.044;22.128;2022-12-10T09:19:33;19.73;;;5.35;;
73321;SDS011;61549;37.044;22.128;2022-12-10T09:21:59;18.65;;;7.43;;
73321;SDS011;61549;37.044;22.128;2022-12-10T09:24:25;15.25;;;6.10;;
73321;SDS011;61549;37.044;22.128;2022-12-10T09:26:51;14.48;;;5.03;;
73321;SDS011;61549;37.044;22.128;2022-12-10T09:29:26;13.60;;;4.22;;
73321;SDS011;61549;37.044;22.128;2022-12-10T09:35:38;11.05;;;3.92;;
73321;SDS011;61549;37.044;22.128;2022-12-10T09:38:06;10.68;;;2.97;;
73321;SDS011;61549;37.044;22.128;2022-12-10T09:40:36;11.93;;;3.30;;
73321;SDS011;61549;37.044;22.128;2022-12-10T09:43:23;13.95;;;3.22;;
73321;SDS011;61549;37.044;22.128;2022-12-10T09:51:27;11.88;;;2.35;;
73321;SDS011;61549;37.044;22.128;2022-12-10T09:53:56;7.07;;;2.40;;
73321;SDS011;61549;37.044;22.128;2022-12-10T09:56:34;11.20;;;4.00;;
73321;SDS011;61549;37.044;22.128;2022-12-10T09:59:51;13.88;;;5.40;;
73321;SDS011;61549;37.044;22.128;2022-12-10T10:02:29;13.57;;;5.75;;
73321;SDS011;61549;37.044;22.128;2022-12-10T10:05:10;14.38;;;5.60;;
73321;SDS011;61549;37.044;22.128;2022-12-10T10:07:39;9.63;;;4.32;;
73321;SDS011;61549;37.044;22.128;2022-12-10T10:10:16;14.00;;;4.72;;
73321;SDS011;61549;37.044;22.128;2022-12-10T10:13:09;14.13;;;5.63;;
73321;SDS011;61549;37.044;22.128;2022-12-10T10:15:46;19.50;;;8.88;;
73321;SDS011;61549;37.044;22.128;2022-12-10T10:18:28;20.33;;;8.82;;
73321;SDS011;61549;37.044;22.128;2022-12-10T10:20:59;18.70;;;7.65;;
73321;SDS011;61549;37.044;22.128;2022-12-10T10:23:26;16.52;;;6.75;;
73321;SDS011;61549;37.044;22.128;2022-12-10T10:25:52;15.27;;;7.07;;
73321;SDS011;61549;37.044;22.128;2022-12-10T10:28:19;14.30;;;5.63;;
73321;SDS011;61549;37.044;22.128;2022-12-10T10:30:47;14.30;;;4.30;;
73321;SDS011;61549;37.044;22.128;2022-12-10T10:33:14;11.48;;;3.75;;
73321;SDS011;61549;37.044;22.128;2022-12-10T10:35:48;13.25;;;4.00;;
73321;SDS011;61549;37.044;22.128;2022-12-10T10:38:28;13.65;;;5.00;;
73321;SDS011;61549;37.044;22.128;2022-12-10T10:41:02;15.40;;;5.38;;
73321;SDS011;61549;37.044;22.128;2022-12-10T10:43:33;21.45;;;5.80;;
73321;SDS011;61549;37.044;22.128;2022-12-10T10:46:14;13.93;;;5.60;;
73321;SDS011;61549;37.044;22.128;2022-12-10T10:48:51;14.60;;;5.85;;
73321;SDS011;61549;37.044;22.128;2022-12-10T10:51:20;20.40;;;6.18;;
73321;SDS011;61549;37.044;22.128;2022-12-10T10:53:51;16.17;;;6.00;;
73321;SDS011;61549;37.044;22.128;2022-12-10T10:56:20;16.63;;;5.68;;
73321;SDS011;61549;37.044;22.128;2022-12-10T10:58:53;18.70;;;6.55;;
73321;SDS011;61549;37.044;22.128;2022-12-10T11:04:48;17.77;;;7.45;;
73321;SDS011;61549;37.044;22.128;2022-12-10T11:07:38;18.05;;;7.03;;
73321;SDS011;61549;37.044;22.128;2022-12-10T11:12:45;15.07;;;5.90;;
73321;SDS011;61549;37.044;22.128;2022-12-10T11:17:48;14.32;;;6.05;;
73321;SDS011;61549;37.044;22.128;2022-12-10T11:20:19;10.18;;;4.93;;
73321;SDS011;61549;37.044;22.128;2022-12-10T11:22:51;11.00;;;3.20;;
73321;SDS011;61549;37.044;22.128;2022-12-10T11:37:10;11.68;;;2.88;;
73321;SDS011;61549;37.044;22.128;2022-12-10T11:42:49;6.72;;;2.28;;
73321;SDS011;61549;37.044;22.128;2022-12-10T11:50:50;8.30;;;2.15;;
73321;SDS011;61549;37.044;22.128;2022-12-10T11:56:31;12.35;;;2.58;;
73321;SDS011;61549;37.044;22.128;2022-12-10T11:59:23;12.35;;;2.17;;
73321;SDS011;61549;37.044;22.128;2022-12-10T12:01:59;9.13;;;2.70;;
73321;SDS011;61549;37.044;22.128;2022-12-10T12:08:19;10.35;;;2.40;;
73321;SDS011;61549;37.044;22.128;2022-12-10T12:10:59;13.40;;;3.17;;
73321;SDS011;61549;37.044;22.128;2022-12-10T12:13:52;16.60;;;4.78;;
73321;SDS011;61549;37.044;22.128;2022-12-10T12:19:12;13.38;;;4.43;;
73321;SDS011;61549;37.044;22.128;2022-12-10T12:21:41;18.80;;;7.55;;
73321;SDS011;61549;37.044;22.128;2022-12-10T12:27:14;9.85;;;2.45;;
73321;SDS011;61549;37.044;22.128;2022-12-10T12:30:16;10.48;;;2.40;;
73321;SDS011;61549;37.044;22.128;2022-12-10T12:32:56;11.57;;;2.40;;
73321;SDS011;61549;37.044;22.128;2022-12-10T12:35:38;14.05;;;3.40;;
73321;SDS011;61549;37.044;22.128;2022-12-10T12:40:43;11.13;;;1.92;;
73321;SDS011;61549;37.044;22.128;2022-12-10T12:43:21;13.73;;;3.60;;
73321;SDS011;61549;37.044;22.128;2022-12-10T12:45:53;18.07;;;9.40;;
73321;SDS011;61549;37.044;22.128;2022-12-10T12:51:05;14.18;;;4.63;;
73321;SDS011;61549;37.044;22.128;2022-12-10T12:53:37;7.50;;;2.15;;
73321;SDS011;61549;37.044;22.128;2022-12-10T13:01:40;10.73;;;3.63;;
73321;SDS011;61549;37.044;22.128;2022-12-10T13:04:21;12.70;;;3.85;;
73321;SDS011;61549;37.044;22.128;2022-12-10T13:09:43;10.88;;;2.55;;
73321;SDS011;61549;37.044;22.128;2022-12-10T13:14:56;12.70;;;2.55;;
73321;SDS011;61549;37.044;22.128;2022-12-10T13:17:33;8.60;;;2.33;;
73321;SDS011;61549;37.044;22.128;2022-12-10T13:22:55;20.20;;;2.65;;
73321;SDS011;61549;37.044;22.128;2022-12-10T13:25:54;11.18;;;2.88;;
73321;SDS011;61549;37.044;22.128;2022-12-10T13:29:10;10.15;;;2.50;;
73321;SDS011;61549;37.044;22.128;2022-12-10T13:33:45;14.75;;;4.03;;
73321;SDS011;61549;37.044;22.128;2022-12-10T13:36:27;13.75;;;3.95;;
73321;SDS011;61549;37.044;22.128;2022-12-10T13:39:21;19.92;;;7.68;;
73321;SDS011;61549;37.044;22.128;2022-12-10T13:45:00;12.32;;;3.17;;
73321;SDS011;61549;37.044;22.128;2022-12-10T13:47:46;17.05;;;5.15;;
73321;SDS011;61549;37.044;22.128;2022-12-10T14:04:30;14.05;;;2.50;;
73321;SDS011;61549;37.044;22.128;2022-12-10T14:07:14;13.20;;;2.53;;
73321;SDS011;61549;37.044;22.128;2022-12-10T14:09:49;13.20;;;2.60;;
73321;SDS011;61549;37.044;22.128;2022-12-10T14:12:24;13.75;;;3.30;;
73321;SDS011;61549;37.044;22.128;2022-12-10T14:15:00;14.93;;;2.70;;
73321;SDS011;61549;37.044;22.128;2022-12-10T14:17:37;16.80;;;4.70;;
73321;SDS011;61549;37.044;22.128;2022-12-10T14:20:07;12.93;;;3.25;;
73321;SDS011;61549;37.044;22.128;2022-12-10T14:22:43;14.63;;;3.13;;
73321;SDS011;61549;37.044;22.128;2022-12-10T14:25:16;23.88;;;9.27;;
73321;SDS011;61549;37.044;22.128;2022-12-10T14:27:52;13.77;;;3.30;;
73321;SDS011;61549;37.044;22.128;2022-12-10T14:30:20;12.82;;;2.50;;
73321;SDS011;61549;37.044;22.128;2022-12-10T14:32:53;15.93;;;3.00;;
73321;SDS011;61549;37.044;22.128;2022-12-10T14:35:26;19.23;;;5.38;;
73321;SDS011;61549;37.044;22.128;2022-12-10T14:37:54;13.65;;;2.72;;
73321;SDS011;61549;37.044;22.128;2022-12-10T14:40:29;11.80;;;3.22;;
73321;SDS011;61549;37.044;22.128;2022-12-10T14:43:14;19.08;;;4.22;;
73321;SDS011;61549;37.044;22.128;2022-12-10T14:45:45;12.43;;;3.80;;
73321;SDS011;61549;37.044;22.128;2022-12-10T14:48:16;13.20;;;2.95;;
73321;SDS011;61549;37.044;22.128;2022-12-10T14:50:43;20.70;;;7.47;;
73321;SDS011;61549;37.044;22.128;2022-12-10T15:01:16;16.50;;;5.68;;
73321;SDS011;61549;37.044;22.128;2022-12-10T15:03:52;17.77;;;3.97;;
73321;SDS011;61549;37.044;22.128;2022-12-10T15:06:19;17.75;;;3.13;;
73321;SDS011;61549;37.044;22.128;2022-12-10T15:08:45;15.65;;;3.72;;
73321;SDS011;61549;37.044;22.128;2022-12-10T15:11:16;16.80;;;3.80;;
73321;SDS011;61549;37.044;22.128;2022-12-10T15:13:48;13.20;;;4.05;;
73321;SDS011;61549;37.044;22.128;2022-12-10T15:16:20;16.58;;;4.75;;
73321;SDS011;61549;37.044;22.128;2022-12-10T15:19:07;18.27;;;4.65;;
73321;SDS011;61549;37.044;22.128;2022-12-10T15:21:45;17.92;;;4.20;;
73321;SDS011;61549;37.044;22.128;2022-12-10T15:24:20;14.75;;;4.13;;
73321;SDS011;61549;37.044;22.128;2022-12-10T15:26:50;20.10;;;4.35;;
73321;SDS011;61549;37.044;22.128;2022-12-10T15:32:10;12.33;;;3.30;;
73321;SDS011;61549;37.044;22.128;2022-12-10T15:34:41;17.90;;;3.92;;
73321;SDS011;61549;37.044;22.128;2022-12-10T15:37:14;18.70;;;4.18;;
73321;SDS011;61549;37.044;22.128;2022-12-10T15:39:55;17.58;;;4.20;;
73321;SDS011;61549;37.044;22.128;2022-12-10T15:44:56;18.20;;;5.55;;
73321;SDS011;61549;37.044;22.128;2022-12-10T15:47:27;17.42;;;4.03;;
73321;SDS011;61549;37.044;22.128;2022-12-10T15:49:55;16.73;;;3.53;;
73321;SDS011;61549;37.044;22.128;2022-12-10T15:52:21;19.55;;;3.40;;
73321;SDS011;61549;37.044;22.128;2022-12-10T15:54:50;16.42;;;3.65;;
73321;SDS011;61549;37.044;22.128;2022-12-10T15:59:48;19.00;;;4.00;;
73321;SDS011;61549;37.044;22.128;2022-12-10T16:05:22;18.73;;;4.45;;
73321;SDS011;61549;37.044;22.128;2022-12-10T16:08:18;14.48;;;3.40;;
73321;SDS011;61549;37.044;22.128;2022-12-10T16:10:45;15.90;;;4.30;;
73321;SDS011;61549;37.044;22.128;2022-12-10T16:15:48;13.88;;;5.20;;
73321;SDS011;61549;37.044;22.128;2022-12-10T16:18:23;16.08;;;4.20;;
73321;SDS011;61549;37.044;22.128;2022-12-10T16:20:49;23.15;;;4.38;;
73321;SDS011;61549;37.044;22.128;2022-12-10T16:23:16;19.88;;;3.95;;
73321;SDS011;61549;37.044;22.128;2022-12-10T16:25:45;16.77;;;4.35;;
73321;SDS011;61549;37.044;22.128;2022-12-10T16:28:16;15.50;;;4.10;;
73321;SDS011;61549;37.044;22.128;2022-12-10T16:30:45;15.60;;;3.78;;
73321;SDS011;61549;37.044;22.128;2022-12-10T16:33:12;16.08;;;4.38;;
73321;SDS011;61549;37.044;22.128;2022-12-10T16:35:38;18.15;;;4.07;;
73321;SDS011;61549;37.044;22.128;2022-12-10T16:38:04;16.17;;;4.35;;
73321;SDS011;61549;37.044;22.128;2022-12-10T16:40:30;13.50;;;3.15;;
73321;SDS011;61549;37.044;22.128;2022-12-10T16:42:56;13.88;;;3.75;;
73321;SDS011;61549;37.044;22.128;2022-12-10T16:48:01;15.57;;;3.10;;
73321;SDS011;61549;37.044;22.128;2022-12-10T16:50:28;14.98;;;3.15;;
73321;SDS011;61549;37.044;22.128;2022-12-10T16:52:54;17.60;;;3.55;;
73321;SDS011;61549;37.044;22.128;2022-12-10T16:55:22;19.48;;;4.13;;
73321;SDS011;61549;37.044;22.128;2022-12-10T16:57:50;20.75;;;3.45;;
73321;SDS011;61549;37.044;22.128;2022-12-10T17:00:18;13.90;;;3.40;;
73321;SDS011;61549;37.044;22.128;2022-12-10T17:02:46;17.25;;;4.90;;
73321;SDS011;61549;37.044;22.128;2022-12-10T17:05:14;14.68;;;3.95;;
73321;SDS011;61549;37.044;22.128;2022-12-10T17:07:43;20.88;;;4.13;;
73321;SDS011;61549;37.044;22.128;2022-12-10T17:10:12;18.65;;;4.80;;